createdAt,value
2023-01-17T00:01:48.179Z,97582.81
2023-01-17T00:04:33.481Z,97578.06
2023-01-17T00:07:20.011Z,97597.09
2023-01-17T00:09:53.724Z,97601.63
2023-01-17T00:12:21.737Z,97613.03
2023-01-17T00:14:49.617Z,97624.22
2023-01-17T00:17:17.060Z,97623.56
2023-01-17T00:20:02.524Z,97633.09
2023-01-17T00:22:49.579Z,97636.88
2023-01-17T00:25:35.850Z,97639.09
2023-01-17T00:28:02.476Z,97640.69
2023-01-17T00:30:29.014Z,97639.09
2023-01-17T00:32:55.451Z,97643.06
2023-01-17T00:35:23.124Z,97648.72
2023-01-17T00:38:00.514Z,97649.94
2023-01-17T00:40:26.973Z,97660.47
2023-01-17T00:42:53.368Z,97652.03
2023-01-17T00:45:38.418Z,97646.13
2023-01-17T00:48:23.687Z,97655.09
2023-01-17T00:51:09.024Z,97651.59
2023-01-17T00:53:55.469Z,97658.16
2023-01-17T00:56:40.717Z,97665.66
2023-01-17T00:59:25.927Z,97667.72
2023-01-17T01:04:56.363Z,97680.50
2023-01-17T01:07:41.701Z,97693.88
2023-01-17T01:10:28.834Z,97689.00
2023-01-17T01:13:13.618Z,97696.94
2023-01-17T01:15:59.073Z,97692.88
2023-01-17T01:18:44.367Z,97702.47
2023-01-17T01:21:29.665Z,97707.31
2023-01-17T01:24:14.903Z,97707.47
2023-01-17T01:27:01.524Z,97728.56
2023-01-17T01:29:46.796Z,97723.66
2023-01-17T01:32:31.969Z,97734.25
2023-01-17T01:34:59.416Z,97733.31
2023-01-17T01:37:26.883Z,97737.47
2023-01-17T01:39:54.437Z,97739.63
2023-01-17T01:42:23.239Z,97738.84
2023-01-17T01:44:52.074Z,97744.53
2023-01-17T01:47:23.997Z,97757.13
2023-01-17T01:49:51.838Z,97758.56
2023-01-17T01:52:20.474Z,97761.00
2023-01-17T01:54:51.783Z,97770.69
2023-01-17T01:57:24.076Z,97774.34
2023-01-17T01:59:55.823Z,97779.41
2023-01-17T02:02:23.507Z,97782.03
2023-01-17T02:04:51.298Z,97769.72
2023-01-17T02:07:23.014Z,97779.19
2023-01-17T02:09:50.980Z,97790.34
2023-01-17T02:12:19.876Z,97788.94
2023-01-17T02:14:48.696Z,97789.31
2023-01-17T02:17:32.196Z,97794.34
2023-01-17T02:20:36.382Z,97799.66
2023-01-17T02:23:21.136Z,97805.50
2023-01-17T02:26:14.219Z,97800.22
2023-01-17T02:28:50.382Z,97811.16
2023-01-17T02:31:23.091Z,97810.94
2023-01-17T02:33:54.982Z,97806.09
2023-01-17T02:36:27.178Z,97805.91
2023-01-17T02:38:57.734Z,97817.66
2023-01-17T02:41:29.041Z,97814.41
2023-01-17T02:43:56.471Z,97814.00
2023-01-17T02:46:25.470Z,97820.44
2023-01-17T02:48:53.114Z,97816.94
2023-01-17T02:51:36.629Z,97829.31
2023-01-17T02:54:12.469Z,97819.56
2023-01-17T02:56:47.180Z,97827.31
2023-01-17T02:59:26.357Z,97822.47
2023-01-17T03:02:04.367Z,97830.19
2023-01-17T03:04:35.846Z,97845.75
2023-01-17T03:07:05.601Z,97838.22
2023-01-17T03:09:33.495Z,97850.59
2023-01-17T03:12:01.206Z,97856.06
2023-01-17T03:14:31.516Z,97854.00
2023-01-17T03:17:00.385Z,97854.81
2023-01-17T03:19:27.905Z,97858.84
2023-01-17T03:21:55.366Z,97862.13
2023-01-17T03:24:22.821Z,97865.38
2023-01-17T03:26:50.272Z,97877.91
2023-01-17T03:29:17.738Z,97877.50
2023-01-17T03:31:45.204Z,97887.63
2023-01-17T03:34:13.988Z,97890.44
2023-01-17T03:36:41.427Z,97887.81
2023-01-17T03:39:09.004Z,97902.97
2023-01-17T03:41:36.444Z,97898.34
2023-01-17T03:44:04.054Z,97896.94
2023-01-17T03:46:31.493Z,97903.19
2023-01-17T03:48:59.002Z,97902.16
2023-01-17T03:51:27.985Z,97902.59
2023-01-17T03:53:55.438Z,97905.81
2023-01-17T03:56:22.972Z,97915.50
2023-01-17T03:58:51.412Z,97914.28
2023-01-17T04:01:19.011Z,97915.09
2023-01-17T04:03:46.515Z,97924.00
2023-01-17T04:06:13.963Z,97916.53
2023-01-17T04:08:42.760Z,97917.56
2023-01-17T04:11:10.222Z,97920.56
2023-01-17T04:13:37.645Z,97924.03
2023-01-17T04:16:05.799Z,97921.16
2023-01-17T04:18:33.243Z,97918.75
2023-01-17T04:21:00.704Z,97921.59
2023-01-17T04:23:28.412Z,97917.94
2023-01-17T04:25:57.231Z,97914.06
2023-01-17T04:28:24.698Z,97918.13
2023-01-17T04:30:52.258Z,97908.22
2023-01-17T04:33:19.783Z,97917.50
2023-01-17T04:35:47.265Z,97909.00
2023-01-17T04:38:14.696Z,97924.75
2023-01-17T04:40:42.187Z,97928.38
2023-01-17T04:43:10.963Z,97925.53
2023-01-17T04:45:39.099Z,97932.38
2023-01-17T04:48:07.528Z,97935.19
2023-01-17T04:50:35.222Z,97939.84
2023-01-17T04:53:02.673Z,97942.41
2023-01-17T04:55:30.121Z,97946.06
2023-01-17T04:57:57.601Z,97945.03
2023-01-17T05:00:26.430Z,97941.44
2023-01-17T05:02:53.974Z,97949.50
2023-01-17T05:05:21.468Z,97946.22
2023-01-17T05:07:54.804Z,97950.19
2023-01-17T05:10:22.317Z,97959.94
2023-01-17T05:12:55.009Z,97955.94
2023-01-17T05:15:22.518Z,97957.84
2023-01-17T05:17:51.601Z,97966.34
2023-01-17T05:20:19.315Z,97958.69
2023-01-17T05:22:47.605Z,97966.34
2023-01-17T05:25:15.132Z,97970.38
2023-01-17T05:27:42.578Z,97967.44
2023-01-17T05:30:11.568Z,97971.22
2023-01-17T05:32:39.058Z,97972.44
2023-01-17T05:35:09.010Z,97977.75
2023-01-17T05:37:36.453Z,97984.97
2023-01-17T05:40:06.068Z,97990.09
2023-01-17T05:42:33.752Z,97983.63
2023-01-17T05:45:01.188Z,97983.81
2023-01-17T05:47:28.616Z,97990.78
2023-01-17T05:49:56.079Z,97990.78
2023-01-17T05:52:24.836Z,97987.34
2023-01-17T05:54:52.649Z,97982.34
2023-01-17T05:57:20.183Z,97978.66
2023-01-17T05:59:47.640Z,97981.72
2023-01-17T06:02:15.092Z,97984.78
2023-01-17T06:04:42.638Z,97976.91
2023-01-17T06:07:10.091Z,97973.06
2023-01-17T06:09:38.884Z,97976.28
2023-01-17T06:12:06.671Z,97974.03
2023-01-17T06:14:34.194Z,97979.91
2023-01-17T06:17:01.657Z,97975.25
2023-01-17T06:19:29.841Z,97980.94
2023-01-17T06:21:57.300Z,97983.81
2023-01-17T06:24:25.346Z,97983.31
2023-01-17T06:26:54.116Z,97988.59
2023-01-17T06:29:21.559Z,97993.00
2023-01-17T06:31:49.040Z,98002.63
2023-01-17T06:34:16.545Z,97997.72
2023-01-17T06:36:44.058Z,97990.22
2023-01-17T06:39:14.840Z,97993.63
2023-01-17T06:41:42.949Z,97991.59
2023-01-17T06:44:12.193Z,97988.75
2023-01-17T06:46:40.754Z,97996.00
2023-01-17T06:49:08.238Z,97997.78
2023-01-17T06:51:35.665Z,97992.34
2023-01-17T06:54:03.177Z,98011.81
2023-01-17T06:56:31.649Z,98007.03
2023-01-17T06:58:59.142Z,98004.59
2023-01-17T07:01:28.002Z,98002.94
2023-01-17T07:03:55.725Z,97995.72
2023-01-17T07:06:23.752Z,98003.34
2023-01-17T07:08:51.189Z,98006.03
2023-01-17T07:11:18.621Z,98004.50
2023-01-17T07:13:46.053Z,98007.00
2023-01-17T07:16:13.619Z,98005.44
2023-01-17T07:18:42.578Z,97995.91
2023-01-17T07:21:14.277Z,97994.09
2023-01-17T07:23:42.144Z,98001.84
2023-01-17T07:26:09.738Z,97996.25
2023-01-17T07:28:37.301Z,98005.38
2023-01-17T07:31:08.595Z,98009.38
2023-01-17T07:33:36.128Z,98008.63
2023-01-17T07:36:07.494Z,97998.50
2023-01-17T07:38:35.650Z,98007.56
2023-01-17T07:41:03.415Z,97993.78
2023-01-17T07:43:31.791Z,97995.34
2023-01-17T07:46:01.258Z,97985.06
2023-01-17T07:48:29.453Z,97988.09
2023-01-17T07:50:58.483Z,97985.59
2023-01-17T07:53:28.401Z,97988.47
2023-01-17T07:55:56.312Z,97981.66
2023-01-17T07:58:23.763Z,97988.97
2023-01-17T08:00:51.632Z,97990.25
2023-01-17T08:03:19.211Z,97985.81
2023-01-17T08:05:54.718Z,97975.63
2023-01-17T08:08:22.408Z,97971.50
2023-01-17T08:10:51.541Z,97974.53
2023-01-17T08:13:18.979Z,97975.16
2023-01-17T08:15:49.007Z,97963.78
2023-01-17T08:18:16.741Z,97974.50
2023-01-17T08:20:44.503Z,97970.94
2023-01-17T08:23:12.318Z,97970.75
2023-01-17T08:25:39.861Z,97965.47
2023-01-17T08:28:08.720Z,97960.44
2023-01-17T08:30:36.459Z,97963.09
2023-01-17T08:33:04.015Z,97954.19
2023-01-17T08:35:31.822Z,97948.53
2023-01-17T08:38:04.578Z,97956.31
2023-01-17T08:40:32.892Z,97943.50
2023-01-17T08:43:01.316Z,97933.28
2023-01-17T08:45:30.175Z,97930.69
2023-01-17T08:47:58.951Z,97927.88
2023-01-17T08:50:26.943Z,97933.56
2023-01-17T08:53:00.947Z,97940.81
2023-01-17T08:55:28.945Z,97942.09
2023-01-17T08:57:57.504Z,97943.69
2023-01-17T09:00:27.060Z,97953.41
2023-01-17T09:02:55.961Z,97947.94
2023-01-17T09:05:23.418Z,97946.72
2023-01-17T09:07:50.897Z,97937.59
2023-01-17T09:10:18.558Z,97938.84
2023-01-17T09:12:46.022Z,97940.50
2023-01-17T09:15:17.711Z,97947.50
2023-01-17T09:17:45.168Z,97947.16
2023-01-17T09:20:14.544Z,97951.81
2023-01-17T09:22:42.048Z,97942.16
2023-01-17T09:25:10.007Z,97946.81
2023-01-17T09:27:37.489Z,97948.41
2023-01-17T09:30:05.837Z,97951.28
2023-01-17T09:32:33.355Z,97956.53
2023-01-17T09:35:00.969Z,97956.91
2023-01-17T09:37:29.987Z,97959.16
2023-01-17T09:39:57.446Z,97955.91
2023-01-17T09:42:32.753Z,97954.91
2023-01-17T09:45:00.339Z,97961.19
2023-01-17T09:47:34.225Z,97957.94
2023-01-17T09:50:09.283Z,97964.03
2023-01-17T09:52:38.063Z,97972.91
2023-01-17T09:55:08.068Z,97971.31
2023-01-17T09:57:42.669Z,97970.50
2023-01-17T10:00:21.353Z,97975.34
2023-01-17T10:02:57.959Z,97966.47
2023-01-17T10:05:46.495Z,97964.84
2023-01-17T10:08:26.643Z,97968.50
2023-01-17T10:11:14.696Z,97970.28
2023-01-17T10:13:47.086Z,97975.38
2023-01-17T10:16:24.791Z,97968.50
2023-01-17T10:19:08.417Z,97969.09
2023-01-17T10:21:49.409Z,97965.84
2023-01-17T10:24:58.654Z,97962.03
2023-01-17T10:27:28.546Z,97964.25
2023-01-17T10:29:55.993Z,97965.25
2023-01-17T10:32:26.639Z,97965.25
2023-01-17T10:34:54.549Z,97969.09
2023-01-17T10:37:24.263Z,97961.00
2023-01-17T10:39:55.295Z,97957.75
2023-01-17T10:42:26.010Z,97954.34
2023-01-17T10:45:00.348Z,97958.00
2023-01-17T10:47:29.851Z,97961.41
2023-01-17T10:49:58.307Z,97955.97
2023-01-17T10:52:33.678Z,97961.81
2023-01-17T10:55:11.672Z,97966.25
2023-01-17T10:57:40.733Z,97962.19
2023-01-17T11:00:23.768Z,97962.00
2023-01-17T11:02:51.986Z,97946.16
2023-01-17T11:05:22.696Z,97947.72
2023-01-17T11:08:01.382Z,97947.25
2023-01-17T11:10:37.880Z,97947.53
2023-01-17T11:13:06.087Z,97951.72
2023-01-17T11:15:35.795Z,97948.16
2023-01-17T11:18:05.686Z,97943.63
2023-01-17T11:20:35.149Z,97948.16
2023-01-17T11:23:06.933Z,97945.84
2023-01-17T11:25:36.019Z,97945.31
2023-01-17T11:28:06.211Z,97931.19
2023-01-17T11:30:33.835Z,97934.56
2023-01-17T11:33:04.107Z,97929.59
2023-01-17T11:35:32.364Z,97927.94
2023-01-17T11:38:08.045Z,97928.03
2023-01-17T11:40:39.644Z,97924.19
2023-01-17T11:43:19.877Z,97931.91
2023-01-17T11:45:48.485Z,97929.69
2023-01-17T11:48:17.958Z,97930.81
2023-01-17T11:50:48.264Z,97922.78
2023-01-17T11:53:23.757Z,97918.88
2023-01-17T11:56:03.783Z,97910.28
2023-01-17T11:58:32.007Z,97917.13
2023-01-17T12:01:02.120Z,97909.97
2023-01-17T12:03:49.758Z,97906.34
2023-01-17T12:06:23.316Z,97903.03
2023-01-17T12:09:03.113Z,97897.56
2023-01-17T12:11:37.932Z,97898.56
2023-01-17T12:14:13.156Z,97888.47
2023-01-17T12:16:50.243Z,97882.13
2023-01-17T12:19:34.477Z,97885.50
2023-01-17T12:22:13.136Z,97882.41
2023-01-17T12:25:15.134Z,97868.84
2023-01-17T12:27:48.478Z,97864.28
2023-01-17T12:30:30.684Z,97870.25
2023-01-17T12:33:05.597Z,97863.91
2023-01-17T12:35:38.523Z,97862.13
2023-01-17T12:38:18.018Z,97858.25
2023-01-17T12:40:54.501Z,97854.69
2023-01-17T12:43:26.766Z,97856.47
2023-01-17T12:45:55.471Z,97861.91
2023-01-17T12:48:25.127Z,97848.41
2023-01-17T12:50:55.601Z,97854.22
2023-01-17T12:53:28.727Z,97849.16
2023-01-17T12:56:01.858Z,97841.44
2023-01-17T12:58:37.466Z,97840.50
2023-01-17T13:01:08.676Z,97835.19
2023-01-17T13:03:42.780Z,97834.19
2023-01-17T13:06:16.939Z,97831.25
2023-01-17T13:08:47.296Z,97819.66
2023-01-17T13:11:18.800Z,97828.56
2023-01-17T13:13:51.262Z,97819.31
2023-01-17T13:16:22.545Z,97816.91
2023-01-17T13:18:53.486Z,97824.75
2023-01-17T13:21:29.919Z,97823.78
2023-01-17T13:24:16.992Z,97821.47
2023-01-17T13:27:00.901Z,97831.25
2023-01-17T13:29:37.677Z,97819.13
2023-01-17T13:32:14.609Z,97822.88
2023-01-17T13:34:57.204Z,97823.91
2023-01-17T13:37:39.187Z,97821.47
2023-01-17T13:40:29.401Z,97828.69
2023-01-17T13:42:59.533Z,97832.53
2023-01-17T13:45:30.795Z,97825.69
2023-01-17T13:48:27.118Z,97821.59
2023-01-17T13:50:56.397Z,97820.41
2023-01-17T13:53:59.802Z,97816.66
2023-01-17T13:56:32.413Z,97815.69
2023-01-17T13:59:27.727Z,97827.69
2023-01-17T14:01:57.371Z,97830.03
2023-01-17T14:04:25.731Z,97838.16
2023-01-17T14:07:03.703Z,97845.28
2023-01-17T14:09:40.039Z,97841.63
2023-01-17T14:12:25.217Z,97835.78
2023-01-17T14:14:57.613Z,97841.63
2023-01-17T14:17:52.593Z,97834.88
2023-01-17T14:20:45.216Z,97822.31
2023-01-17T14:23:45.270Z,97822.34
2023-01-17T14:26:31.423Z,97814.28
2023-01-17T14:29:00.035Z,97809.38
2023-01-17T14:31:28.997Z,97808.94
2023-01-17T14:34:12.513Z,97811.72
2023-01-17T14:36:40.568Z,97812.72
2023-01-17T14:39:22.045Z,97804.94
2023-01-17T14:41:49.518Z,97803.94
2023-01-17T14:44:17.902Z,97806.94
2023-01-17T14:46:47.945Z,97801.25
2023-01-17T14:49:23.992Z,97806.59
2023-01-17T14:52:01.624Z,97797.53
2023-01-17T14:54:29.120Z,97797.22
2023-01-17T14:57:15.479Z,97797.22
2023-01-17T14:59:42.948Z,97797.00
2023-01-17T15:02:15.922Z,97812.25
2023-01-17T15:04:45.518Z,97806.97
2023-01-17T15:07:16.680Z,97805.75
2023-01-17T15:09:44.934Z,97798.53
2023-01-17T15:12:14.368Z,97800.63
2023-01-17T15:14:44.546Z,97803.91
2023-01-17T15:17:18.766Z,97809.59
2023-01-17T15:19:50.615Z,97809.88
2023-01-17T15:22:18.968Z,97806.03
2023-01-17T15:24:47.789Z,97819.38
2023-01-17T15:27:16.729Z,97819.78
2023-01-17T15:29:44.832Z,97823.47
2023-01-17T15:32:19.967Z,97822.19
2023-01-17T15:34:49.497Z,97827.13
2023-01-17T15:37:25.487Z,97824.56
2023-01-17T15:39:52.961Z,97832.03
2023-01-17T15:42:23.331Z,97822.19
2023-01-17T15:44:54.672Z,97824.47
2023-01-17T15:47:30.606Z,97826.00
2023-01-17T15:49:59.997Z,97822.84
2023-01-17T15:52:27.831Z,97828.84
2023-01-17T15:54:59.809Z,97826.47
2023-01-17T15:57:28.574Z,97823.34
2023-01-17T15:59:59.481Z,97824.16
2023-01-17T16:02:32.783Z,97827.81
2023-01-17T16:05:03.650Z,97824.59
2023-01-17T16:07:34.700Z,97835.06
2023-01-17T16:10:14.726Z,97834.28
2023-01-17T16:12:42.732Z,97843.38
2023-01-17T16:15:13.119Z,97842.97
2023-01-17T16:17:42.499Z,97852.41
2023-01-17T16:20:15.929Z,97840.69
2023-01-17T16:22:44.031Z,97843.69
2023-01-17T16:25:15.417Z,97837.03
2023-01-17T16:27:43.213Z,97843.91
2023-01-17T16:30:12.238Z,97842.13
2023-01-17T16:32:39.818Z,97850.13
2023-01-17T16:35:08.245Z,97847.91
2023-01-17T16:37:37.532Z,97843.09
2023-01-17T16:40:06.005Z,97839.03
2023-01-17T16:42:34.525Z,97839.63
2023-01-17T16:45:02.075Z,97840.59
2023-01-17T16:47:29.715Z,97847.88
2023-01-17T16:49:57.320Z,97844.66
2023-01-17T16:52:24.997Z,97848.66
2023-01-17T16:54:55.249Z,97852.44
2023-01-17T16:57:22.968Z,97850.28
2023-01-17T16:59:51.125Z,97849.13
2023-01-17T17:02:19.515Z,97844.66
2023-01-17T17:04:47.198Z,97845.50
2023-01-17T17:07:14.955Z,97844.94
2023-01-17T17:09:42.639Z,97844.38
2023-01-17T17:12:11.527Z,97851.66
2023-01-17T17:14:39.410Z,97843.38
2023-01-17T17:17:07.622Z,97841.16
2023-01-17T17:19:35.633Z,97844.38
2023-01-17T17:22:03.229Z,97849.63
2023-01-17T17:24:30.835Z,97853.66
2023-01-17T17:26:58.546Z,97849.63
2023-01-17T17:29:27.447Z,97848.03
2023-01-17T17:31:54.995Z,97861.16
2023-01-17T17:34:23.261Z,97850.03
2023-01-17T17:36:53.037Z,97859.31
2023-01-17T17:39:20.787Z,97854.06
2023-01-17T17:41:48.544Z,97857.31
2023-01-17T17:44:16.527Z,97860.53
2023-01-17T17:46:49.088Z,97862.38
2023-01-17T17:49:17.982Z,97862.97
2023-01-17T17:51:45.734Z,97862.53
2023-01-17T17:54:15.189Z,97869.81
2023-01-17T17:56:46.462Z,97862.91
2023-01-17T17:59:18.084Z,97863.72
2023-01-17T18:01:47.670Z,97871.81
2023-01-17T18:04:15.425Z,97873.63
2023-01-17T18:06:43.347Z,97882.28
2023-01-17T18:09:12.560Z,97874.75
2023-01-17T18:11:41.791Z,97869.75
2023-01-17T18:14:11.266Z,97880.09
2023-01-17T18:16:41.632Z,97880.91
2023-01-17T18:19:15.940Z,97886.75
2023-01-17T18:21:43.893Z,97881.91
2023-01-17T18:24:12.886Z,97878.69
2023-01-17T18:26:42.022Z,97879.53
2023-01-17T18:29:14.044Z,97886.38
2023-01-17T18:31:42.047Z,97884.75
2023-01-17T18:34:11.960Z,97883.31
2023-01-17T18:36:39.603Z,97882.94
2023-01-17T18:39:11.865Z,97891.19
2023-01-17T18:41:39.405Z,97887.59
2023-01-17T18:44:07.751Z,97888.38
2023-01-17T18:46:36.164Z,97892.03
2023-01-17T18:49:04.359Z,97905.75
2023-01-17T18:51:34.489Z,97901.47
2023-01-17T18:54:05.320Z,97897.22
2023-01-17T18:56:35.075Z,97901.63
2023-01-17T18:59:03.299Z,97908.09
2023-01-17T19:01:34.285Z,97905.47
2023-01-17T19:04:04.461Z,97914.34
2023-01-17T19:06:35.089Z,97920.41
2023-01-17T19:09:03.050Z,97918.59
2023-01-17T19:11:30.971Z,97923.06
2023-01-17T19:13:58.705Z,97923.66
2023-01-17T19:16:28.973Z,97932.34
2023-01-17T19:18:57.635Z,97934.19
2023-01-17T19:21:27.360Z,97928.91
2023-01-17T19:23:57.115Z,97937.56
2023-01-17T19:26:25.504Z,97939.97
2023-01-17T19:28:53.870Z,97946.00
2023-01-17T19:31:22.692Z,97953.50
2023-01-17T19:33:51.656Z,97950.09
2023-01-17T19:36:20.960Z,97948.44
2023-01-17T19:39:03.043Z,97952.31
2023-01-17T19:41:34.162Z,97961.00
2023-01-17T19:44:03.217Z,97967.25
2023-01-17T19:46:31.058Z,97966.06
2023-01-17T19:48:59.625Z,97961.84
2023-01-17T19:51:27.750Z,97961.84
2023-01-17T19:53:55.738Z,97968.72
2023-01-17T19:56:26.475Z,97967.28
2023-01-17T19:58:57.176Z,97970.69
2023-01-17T20:01:28.511Z,97963.78
2023-01-17T20:03:57.909Z,97964.63
2023-01-17T20:06:27.697Z,97973.16
2023-01-17T20:08:55.463Z,97970.31
2023-01-17T20:11:24.716Z,97968.31
2023-01-17T20:13:54.268Z,97970.75
2023-01-17T20:16:24.759Z,97970.34
2023-01-17T20:18:52.776Z,97973.56
2023-01-17T20:21:21.893Z,97973.38
2023-01-17T20:23:50.145Z,97972.75
2023-01-17T20:26:19.245Z,97969.28
2023-01-17T20:28:49.374Z,97977.16
2023-01-17T20:31:23.816Z,97978.41
2023-01-17T20:33:53.991Z,97966.28
2023-01-17T20:36:22.523Z,97968.13
2023-01-17T20:38:50.403Z,97976.38
2023-01-17T20:41:19.350Z,97977.44
2023-01-17T20:43:48.839Z,97978.47
2023-01-17T20:46:16.575Z,97979.44
2023-01-17T20:48:46.328Z,97978.66
2023-01-17T20:51:15.006Z,97988.97
2023-01-17T20:53:44.238Z,97982.06
2023-01-17T20:56:13.463Z,97987.53
2023-01-17T20:58:41.038Z,97982.88
2023-01-17T21:01:10.333Z,97985.31
2023-01-17T21:03:39.263Z,97989.16
2023-01-17T21:06:10.072Z,97989.34
2023-01-17T21:08:40.740Z,97986.94
2023-01-17T21:11:09.945Z,97993.19
2023-01-17T21:13:37.684Z,97992.56
2023-01-17T21:16:05.788Z,97994.38
2023-01-17T21:18:33.598Z,97992.72
2023-01-17T21:21:03.875Z,97999.22
2023-01-17T21:23:32.738Z,97984.88
2023-01-17T21:26:00.254Z,97991.53
2023-01-17T21:28:30.227Z,97992.72
2023-01-17T21:30:58.279Z,97988.88
2023-01-17T21:33:29.256Z,97981.59
2023-01-17T21:35:59.087Z,97991.53
2023-01-17T21:38:26.683Z,97988.47
2023-01-17T21:40:57.750Z,97989.50
2023-01-17T21:43:25.416Z,97986.28
2023-01-17T21:45:53.499Z,97987.94
2023-01-17T21:48:21.336Z,97982.88
2023-01-17T21:50:51.951Z,97987.31
2023-01-17T21:53:19.499Z,97992.56
2023-01-17T21:56:10.037Z,97989.94
2023-01-17T21:58:44.991Z,97993.16
2023-01-17T22:01:17.823Z,97992.50
2023-01-17T22:03:46.192Z,97986.06
2023-01-17T22:06:13.853Z,97996.97
2023-01-17T22:08:41.879Z,97993.53
2023-01-17T22:11:11.015Z,97996.53
2023-01-17T22:13:40.984Z,97998.75
2023-01-17T22:16:11.408Z,97994.50
2023-01-17T22:18:40.232Z,97996.13
2023-01-17T22:21:09.704Z,97996.13
2023-01-17T22:23:39.247Z,97996.09
2023-01-17T22:26:08.721Z,97997.13
2023-01-17T22:28:36.317Z,97999.56
2023-01-17T22:31:10.579Z,98003.72
2023-01-17T22:33:38.921Z,97996.84
2023-01-17T22:36:07.194Z,97990.59
2023-01-17T22:38:35.278Z,97991.97
2023-01-17T22:41:07.793Z,97989.97
2023-01-17T22:43:37.148Z,97997.00
2023-01-17T22:46:05.390Z,97996.78
2023-01-17T22:48:34.438Z,97989.53
2023-01-17T22:51:03.374Z,97993.53
2023-01-17T22:53:31.400Z,97987.25
2023-01-17T22:56:00.820Z,97981.41
2023-01-17T22:58:28.803Z,97989.09
2023-01-17T23:01:04.750Z,97999.38
2023-01-17T23:03:33.923Z,97996.38
2023-01-17T23:06:09.157Z,97992.53
2023-01-17T23:08:37.214Z,97991.13
2023-01-17T23:11:25.203Z,97988.31
2023-01-17T23:13:54.030Z,97988.13
2023-01-17T23:16:47.739Z,97985.50
2023-01-17T23:19:26.151Z,97990.09
2023-01-17T23:22:13.059Z,97983.81
2023-01-17T23:24:43.251Z,97981.59
2023-01-17T23:27:33.201Z,97989.91
2023-01-17T23:30:00.749Z,97992.28
2023-01-17T23:32:28.899Z,97989.28
2023-01-17T23:34:57.975Z,97983.06
2023-01-17T23:37:49.911Z,97985.47
2023-01-17T23:40:18.394Z,97983.25
2023-01-17T23:43:03.617Z,97973.16
2023-01-17T23:45:31.286Z,97971.94
2023-01-17T23:47:58.825Z,97971.75
2023-01-17T23:50:27.873Z,97973.75
2023-01-17T23:52:55.798Z,97962.66
2023-01-17T23:55:23.590Z,97967.13
2023-01-17T23:57:51.633Z,97976.22
